Time;durP1;ratioP1;P1;durP2;ratioP2;P2;SDS_P1;SDS_P2;PMS_P1;PMS_P2;Temp;Humidity;BMP_temperature;BMP_pressure;BME280_temperature;BME280_humidity;BME280_pressure;Samples;Min_cycle;Max_cycle;Signal;HPM_P1;HPM_P2
2021/07/30 00:01:11;;;;;;;6.57;5.97;;;35.30;31.30;;;;;;5016351;28;20500;-27
2021/07/30 00:03:42;;;;;;;6.90;6.30;;;35.30;32.50;;;;;;5013846;28;20457;-28
2021/07/30 00:06:29;;;;;;;6.13;5.63;;;35.10;33.80;;;;;;5009215;28;20434;-28
2021/07/30 00:09:00;;;;;;;6.40;5.80;;;35.20;35.30;;;;;;5004661;28;20510;-28
2021/07/30 00:11:31;;;;;;;5.60;5.10;;;35.30;35.30;;;;;;5009153;28;20542;-27
2021/07/30 00:14:02;;;;;;;6.47;5.77;;;35.20;34.10;;;;;;5015098;28;20891;-27
2021/07/30 00:16:33;;;;;;;6.40;5.80;;;35.10;35.00;;;;;;5019633;28;20468;-27
2021/07/30 00:19:05;;;;;;;6.87;5.80;;;35.10;35.40;;;;;;5020114;28;20453;-27
2021/07/30 00:21:39;;;;;;;5.97;5.30;;;35.10;36.30;;;;;;5025255;28;20449;-27
2021/07/30 00:24:10;;;;;;;5.43;5.03;;;35.20;36.40;;;;;;5023204;28;20508;-27
2021/07/30 00:26:41;;;;;;;5.20;4.77;;;35.10;36.30;;;;;;5025860;28;20493;-27
2021/07/30 00:29:12;;;;;;;5.03;4.63;;;35.10;36.10;;;;;;5008379;28;20880;-27
2021/07/30 00:31:43;;;;;;;5.70;4.47;;;35.00;37.00;;;;;;5014636;28;20485;-27
2021/07/30 00:34:14;;;;;;;5.50;5.10;;;35.00;36.70;;;;;;5025790;28;20449;-27
2021/07/30 00:36:47;;;;;;;4.97;4.57;;;34.90;36.90;;;;;;5019878;28;20504;-28
2021/07/30 00:39:18;;;;;;;5.43;5.00;;;34.80;38.50;;;;;;5023537;28;20453;-28
2021/07/30 00:41:52;;;;;;;5.83;5.23;;;34.90;37.00;;;;;;5014794;28;20485;-27
2021/07/30 00:44:23;;;;;;;5.53;5.03;;;34.60;37.20;;;;;;5026002;28;20485;-27
2021/07/30 00:46:54;;;;;;;5.87;5.37;;;34.60;37.40;;;;;;5022871;28;20473;-27
2021/07/30 00:49:26;;;;;;;4.67;4.27;;;34.40;36.10;;;;;;5018103;28;20970;-27
2021/07/30 00:52:01;;;;;;;5.20;4.80;;;34.30;36.40;;;;;;5013477;28;20468;-27
2021/07/30 00:54:32;;;;;;;4.90;4.50;;;34.30;35.80;;;;;;5019444;28;20452;-27
2021/07/30 00:57:03;;;;;;;4.77;4.37;;;34.20;35.90;;;;;;5015696;28;20442;-27
2021/07/30 00:59:35;;;;;;;5.80;5.20;;;34.30;37.70;;;;;;5021305;28;20507;-28
2021/07/30 01:02:07;;;;;;;4.90;4.50;;;34.30;37.60;;;;;;5021593;28;20492;-27
2021/07/30 01:04:38;;;;;;;5.20;4.80;;;34.20;38.50;;;;;;5022192;28;20461;-27
2021/07/30 01:07:10;;;;;;;5.40;4.90;;;34.20;38.30;;;;;;5021140;28;20472;-28
2021/07/30 01:09:41;;;;;;;5.77;5.23;;;34.20;38.70;;;;;;5020738;28;20478;-28
2021/07/30 01:12:13;;;;;;;4.83;4.43;;;34.10;39.60;;;;;;5021527;28;20457;-27
2021/07/30 01:14:44;;;;;;;5.30;4.90;;;34.00;39.50;;;;;;5012297;28;20540;-27
2021/07/30 01:17:15;;;;;;;6.37;5.77;;;34.00;39.20;;;;;;5021130;28;20446;-28
2021/07/30 01:19:46;;;;;;;5.10;4.70;;;33.90;39.20;;;;;;5020318;28;20454;-27
2021/07/30 01:22:23;;;;;;;5.90;5.40;;;33.80;40.00;;;;;;5009487;28;20445;-28
2021/07/30 01:24:56;;;;;;;5.33;4.90;;;33.80;40.80;;;;;;5021154;28;20440;-28
2021/07/30 01:27:27;;;;;;;4.73;4.03;;;33.80;39.80;;;;;;5019653;28;20480;-27
2021/07/30 01:29:58;;;;;;;6.33;5.73;;;33.70;39.40;;;;;;5007391;28;20556;-28
2021/07/30 01:32:31;;;;;;;6.03;5.43;;;33.70;39.80;;;;;;5020001;28;20457;-28
2021/07/30 01:35:06;;;;;;;6.13;5.30;;;33.70;39.90;;;;;;5008707;28;20469;-27
2021/07/30 01:37:37;;;;;;;6.00;5.13;;;33.70;40.00;;;;;;5020474;28;20459;-28
2021/07/30 01:40:11;;;;;;;5.37;4.97;;;33.60;40.20;;;;;;5025510;28;20433;-27
2021/07/30 01:42:43;;;;;;;6.07;4.87;;;33.60;40.50;;;;;;5024928;28;20457;-27
2021/07/30 01:45:17;;;;;;;5.23;4.73;;;33.50;40.60;;;;;;5025143;28;20508;-27
2021/07/30 01:47:49;;;;;;;6.43;5.50;;;33.40;41.20;;;;;;5022893;28;20499;-27
2021/07/30 01:50:20;;;;;;;5.27;4.77;;;33.30;42.10;;;;;;5019225;28;20504;-26
2021/07/30 01:52:51;;;;;;;7.63;5.60;;;33.30;41.70;;;;;;5020331;28;20453;-28
2021/07/30 01:55:24;;;;;;;5.03;4.60;;;33.20;42.40;;;;;;5025564;28;20490;-27
2021/07/30 01:57:55;;;;;;;8.73;5.33;;;33.10;42.20;;;;;;5023056;28;20475;-27
2021/07/30 02:00:26;;;;;;;6.10;5.10;;;33.00;42.00;;;;;;5014199;28;20493;-26
2021/07/30 02:02:57;;;;;;;6.47;5.87;;;32.80;42.80;;;;;;5021492;28;20460;-27
2021/07/30 02:05:28;;;;;;;7.43;6.73;;;32.80;43.00;;;;;;5013007;28;20528;-27
2021/07/30 02:07:59;;;;;;;7.30;6.60;;;32.80;42.00;;;;;;5019606;28;20453;-28
2021/07/30 02:10:31;;;;;;;6.50;5.90;;;32.80;42.00;;;;;;5014463;28;20485;-27
2021/07/30 02:15:50;;;;;;;8.20;6.80;;;32.60;42.20;;;;;;5016306;28;20453;-27
2021/07/30 02:18:21;;;;;;;7.40;6.70;;;32.60;42.50;;;;;;5017441;28;20456;-26
2021/07/30 02:20:52;;;;;;;8.40;7.53;;;32.50;42.80;;;;;;5023110;28;20448;-26
2021/07/30 02:23:23;;;;;;;7.83;7.10;;;32.60;43.20;;;;;;5011929;28;20502;-26
2021/07/30 02:25:55;;;;;;;6.47;5.77;;;32.60;43.60;;;;;;5015943;28;20497;-29
2021/07/30 02:28:26;;;;;;;5.73;5.00;;;32.60;43.40;;;;;;5016692;28;20473;-27
2021/07/30 02:30:58;;;;;;;5.97;5.47;;;32.60;43.70;;;;;;5022284;28;20565;-26
2021/07/30 02:33:29;;;;;;;6.03;5.40;;;32.40;44.80;;;;;;5022476;28;20458;-27
2021/07/30 02:36:00;;;;;;;5.40;5.00;;;32.20;45.30;;;;;;5022780;28;20771;-27
2021/07/30 02:38:31;;;;;;;5.53;4.93;;;32.10;45.20;;;;;;5023646;28;20480;-27
2021/07/30 02:41:05;;;;;;;5.27;4.77;;;32.00;44.80;;;;;;5014191;28;20449;-26
2021/07/30 02:43:36;;;;;;;5.40;4.90;;;31.90;45.70;;;;;;5011351;28;20574;-27
2021/07/30 02:46:25;;;;;;;5.50;5.00;;;31.80;45.70;;;;;;5008241;28;20456;-26
2021/07/30 02:48:56;;;;;;;5.77;5.27;;;31.70;45.80;;;;;;5022992;28;20484;-27
2021/07/30 02:51:27;;;;;;;6.10;5.03;;;31.60;45.30;;;;;;5019589;28;20485;-26
2021/07/30 02:53:58;;;;;;;5.23;4.83;;;31.50;45.40;;;;;;5023360;28;20480;-27
2021/07/30 02:56:31;;;;;;;6.20;5.70;;;31.40;45.90;;;;;;5023357;28;20475;-26
2021/07/30 02:59:02;;;;;;;5.10;4.70;;;31.40;46.00;;;;;;5021951;28;20459;-26
2021/07/30 03:01:33;;;;;;;5.00;4.60;;;31.40;45.70;;;;;;5022674;28;20538;-27
2021/07/30 03:04:04;;;;;;;5.20;4.70;;;31.50;45.40;;;;;;5023101;28;20461;-25
2021/07/30 03:06:35;;;;;;;4.93;4.23;;;31.50;45.40;;;;;;5021594;28;20453;-27
2021/07/30 03:09:06;;;;;;;4.53;4.13;;;31.50;44.90;;;;;;5018758;28;20436;-27
2021/07/30 03:11:38;;;;;;;4.90;4.50;;;31.50;45.10;;;;;;5019191;28;20484;-27
2021/07/30 03:14:09;;;;;;;5.23;4.43;;;31.40;46.00;;;;;;5006766;28;20484;-27
2021/07/30 03:16:40;;;;;;;4.80;4.50;;;31.20;47.10;;;;;;5021267;28;20456;-27
2021/07/30 03:19:11;;;;;;;4.83;4.43;;;31.10;47.70;;;;;;5020764;28;20453;-27
2021/07/30 03:21:42;;;;;;;4.67;4.27;;;31.00;48.20;;;;;;5018458;28;20452;-27
2021/07/30 03:24:13;;;;;;;4.47;3.97;;;30.80;48.80;;;;;;5012939;28;20508;-27
2021/07/30 03:26:46;;;;;;;4.97;4.57;;;30.70;49.40;;;;;;5030258;28;20446;-27
2021/07/30 03:29:17;;;;;;;5.97;4.37;;;30.60;49.80;;;;;;5009996;28;20532;-27
2021/07/30 03:31:48;;;;;;;4.87;3.97;;;30.50;50.60;;;;;;5019625;28;20487;-27
2021/07/30 03:34:19;;;;;;;4.03;3.73;;;30.40;51.30;;;;;;5021381;28;20684;-28
2021/07/30 03:36:51;;;;;;;4.97;4.23;;;30.30;51.70;;;;;;5014124;28;20474;-27
2021/07/30 03:39:22;;;;;;;4.70;4.30;;;30.30;51.80;;;;;;5004024;28;20481;-28
2021/07/30 03:41:54;;;;;;;4.00;3.70;;;30.40;51.90;;;;;;5010246;28;20454;-27
2021/07/30 03:44:26;;;;;;;5.00;4.50;;;30.30;52.30;;;;;;5017795;28;20503;-26
2021/07/30 03:47:16;;;;;;;4.70;4.27;;;30.30;52.40;;;;;;5003588;28;20451;-26
2021/07/30 03:49:47;;;;;;;4.63;4.20;;;30.30;52.20;;;;;;5018623;28;20481;-26
2021/07/30 03:52:19;;;;;;;4.10;3.67;;;30.20;52.20;;;;;;5014179;28;20484;-26
2021/07/30 03:54:50;;;;;;;5.43;4.10;;;30.20;52.50;;;;;;5013690;28;20471;-26
2021/07/30 03:57:23;;;;;;;5.03;4.63;;;30.00;52.80;;;;;;5012587;28;20484;-26
2021/07/30 03:59:56;;;;;;;4.53;4.03;;;29.90;53.20;;;;;;5017780;28;20451;-26
2021/07/30 04:02:30;;;;;;;4.10;3.80;;;29.70;53.50;;;;;;5007568;28;20455;-26
2021/07/30 04:05:02;;;;;;;4.33;3.93;;;29.60;53.10;;;;;;5019504;28;20563;-26
2021/07/30 04:07:32;;;;;;;4.60;3.93;;;29.50;53.20;;;;;;5019648;28;20452;-26
2021/07/30 04:10:04;;;;;;;3.93;3.63;;;29.50;53.70;;;;;;5009777;28;20454;-26
2021/07/30 04:12:36;;;;;;;4.70;3.80;;;29.40;53.80;;;;;;5013049;28;20444;-26
2021/07/30 04:15:09;;;;;;;4.30;4.00;;;29.30;53.50;;;;;;5017000;28;20456;-26
2021/07/30 04:17:40;;;;;;;4.90;4.17;;;29.30;53.50;;;;;;5020673;28;20447;-26
2021/07/30 04:20:12;;;;;;;4.40;3.73;;;29.30;53.80;;;;;;5021508;28;20474;-26
2021/07/30 04:22:43;;;;;;;7.17;4.47;;;29.30;53.90;;;;;;5020588;28;20459;-26
2021/07/30 04:25:30;;;;;;;3.87;3.57;;;29.20;53.90;;;;;;5018056;28;20501;-26
2021/07/30 04:28:03;;;;;;;4.30;3.90;;;29.20;54.50;;;;;;5015920;28;20455;-28
2021/07/30 04:30:34;;;;;;;4.77;3.73;;;29.10;54.70;;;;;;5017072;28;20485;-26
2021/07/30 04:33:07;;;;;;;4.57;4.03;;;29.00;55.20;;;;;;5029702;28;20556;-26
2021/07/30 04:35:38;;;;;;;4.87;4.47;;;28.90;55.10;;;;;;5008071;28;20451;-26
2021/07/30 04:38:09;;;;;;;7.67;3.83;;;28.90;55.20;;;;;;5017667;28;20936;-27
2021/07/30 04:40:40;;;;;;;4.20;3.80;;;28.80;55.50;;;;;;5018339;28;20466;-26
2021/07/30 04:43:12;;;;;;;4.63;3.60;;;28.70;56.00;;;;;;5005148;28;20493;-28
2021/07/30 04:45:44;;;;;;;4.80;4.27;;;28.60;56.30;;;;;;5020307;28;20568;-26
2021/07/30 04:48:14;;;;;;;4.50;4.10;;;28.60;56.50;;;;;;5002320;28;20454;-26
2021/07/30 04:50:45;;;;;;;3.83;3.53;;;28.50;57.00;;;;;;5018451;28;20547;-27
2021/07/30 04:53:19;;;;;;;4.57;4.17;;;28.40;57.40;;;;;;5019582;28;20461;-27
2021/07/30 04:55:50;;;;;;;5.37;4.87;;;28.30;57.70;;;;;;5012143;28;20548;-26
2021/07/30 04:58:22;;;;;;;4.13;3.70;;;28.20;58.00;;;;;;5008380;28;20492;-26
2021/07/30 05:00:53;;;;;;;5.43;4.10;;;28.20;58.30;;;;;;5020875;28;20450;-26
2021/07/30 05:03:24;;;;;;;5.73;4.30;;;28.10;58.60;;;;;;5017639;28;20568;-26
2021/07/30 05:05:56;;;;;;;4.30;3.90;;;28.00;58.80;;;;;;5022781;28;20449;-27
2021/07/30 05:08:27;;;;;;;6.63;3.83;;;28.10;59.20;;;;;;5016717;28;20741;-27
2021/07/30 05:10:58;;;;;;;9.67;4.40;;;28.00;59.40;;;;;;5014625;28;20481;-27
2021/07/30 05:13:30;;;;;;;4.77;4.37;;;28.00;59.70;;;;;;5016055;28;22144;-26
2021/07/30 05:16:05;;;;;;;5.17;4.43;;;27.90;59.80;;;;;;5017522;28;20476;-26
2021/07/30 05:18:36;;;;;;;4.50;3.70;;;27.90;60.10;;;;;;5014824;28;20500;-27
2021/07/30 05:21:08;;;;;;;4.00;3.60;;;27.80;60.50;;;;;;5022164;28;20460;-26
2021/07/30 05:23:41;;;;;;;4.07;3.67;;;27.60;61.70;;;;;;5024362;28;20527;-26
2021/07/30 05:26:11;;;;;;;4.67;4.10;;;27.50;62.10;;;;;;5024139;28;20456;-25
2021/07/30 05:28:44;;;;;;;4.43;4.03;;;27.40;62.70;;;;;;5022289;28;20513;-25
2021/07/30 05:31:17;;;;;;;6.10;4.00;;;27.30;63.10;;;;;;5023446;28;20488;-26
2021/07/30 05:33:48;;;;;;;5.53;4.00;;;27.20;63.50;;;;;;5024890;28;20567;-26
2021/07/30 05:36:20;;;;;;;5.20;4.70;;;27.20;63.50;;;;;;5025345;28;20457;-26
2021/07/30 05:38:51;;;;;;;7.53;4.50;;;27.10;63.50;;;;;;5024307;28;20460;-27
2021/07/30 05:41:22;;;;;;;4.67;4.27;;;27.10;63.60;;;;;;5022754;28;20503;-27
2021/07/30 05:43:55;;;;;;;4.80;3.70;;;27.10;63.70;;;;;;5024763;28;20543;-27
2021/07/30 05:46:26;;;;;;;5.90;4.40;;;27.10;64.80;;;;;;5021718;28;20475;-27
2021/07/30 05:48:59;;;;;;;3.83;3.53;;;27.00;64.30;;;;;;5020926;28;20485;-27
2021/07/30 05:51:30;;;;;;;5.70;4.03;;;27.00;64.70;;;;;;5023136;28;20490;-27
2021/07/30 05:54:01;;;;;;;4.90;4.50;;;26.80;65.40;;;;;;5024437;28;20458;-27
2021/07/30 05:56:32;;;;;;;5.30;4.37;;;26.70;65.90;;;;;;5019120;28;20456;-27
2021/07/30 05:59:07;;;;;;;4.77;4.30;;;26.60;66.20;;;;;;5024647;28;20452;-27
2021/07/30 06:01:38;;;;;;;4.07;3.70;;;26.60;66.50;;;;;;5018741;28;20485;-27
2021/07/30 06:04:09;;;;;;;4.83;4.33;;;26.50;67.10;;;;;;5005510;28;20504;-26
2021/07/30 06:06:41;;;;;;;4.60;4.20;;;26.30;68.60;;;;;;5017303;28;20447;-26
2021/07/30 06:09:12;;;;;;;6.03;4.33;;;26.30;68.00;;;;;;5020904;28;20458;-27
2021/07/30 06:11:43;;;;;;;4.50;3.67;;;26.20;68.50;;;;;;5020057;28;20503;-27
2021/07/30 06:14:15;;;;;;;5.23;4.73;;;26.10;69.10;;;;;;5023176;28;20496;-27
2021/07/30 06:16:46;;;;;;;4.80;4.40;;;26.10;69.60;;;;;;5013183;28;20527;-27
2021/07/30 06:19:17;;;;;;;4.67;4.17;;;26.00;69.60;;;;;;5014728;28;20523;-27
2021/07/30 06:21:48;;;;;;;5.17;3.80;;;26.00;69.90;;;;;;5014469;28;20447;-25
2021/07/30 06:24:19;;;;;;;4.30;3.90;;;25.90;70.30;;;;;;5022092;28;20446;-26
2021/07/30 06:26:50;;;;;;;4.67;3.73;;;25.80;70.50;;;;;;5021654;28;20466;-26
2021/07/30 06:29:23;;;;;;;6.60;3.93;;;25.80;71.80;;;;;;5020687;28;20454;-26
2021/07/30 06:31:54;;;;;;;5.13;4.10;;;25.80;71.10;;;;;;5023179;28;20529;-26
2021/07/30 06:34:24;;;;;;;4.43;3.37;;;25.70;71.80;;;;;;5024011;28;20453;-26
2021/07/30 06:36:57;;;;;;;4.17;3.87;;;25.70;72.10;;;;;;5015508;28;20443;-26
2021/07/30 06:39:28;;;;;;;4.17;3.20;;;25.60;72.50;;;;;;5019679;28;20466;-26
2021/07/30 06:41:59;;;;;;;3.80;3.50;;;25.60;73.40;;;;;;5021317;28;20912;-26
2021/07/30 06:44:32;;;;;;;4.67;3.83;;;25.50;73.50;;;;;;5021403;28;20534;-26
2021/07/30 06:47:23;;;;;;;3.70;3.40;;;25.50;74.10;;;;;;5022986;28;20504;-26
2021/07/30 06:49:54;;;;;;;4.00;3.70;;;25.40;74.80;;;;;;5021058;28;20800;-26
2021/07/30 06:52:25;;;;;;;4.80;3.83;;;25.30;75.20;;;;;;5020883;28;20540;-26
2021/07/30 06:54:56;;;;;;;3.83;3.53;;;25.20;76.30;;;;;;5019447;28;20454;-26
2021/07/30 06:57:27;;;;;;;4.20;3.80;;;25.20;76.50;;;;;;5011873;28;20539;-26
2021/07/30 06:59:59;;;;;;;4.20;3.70;;;25.20;76.80;;;;;;5018690;28;20455;-26
2021/07/30 07:02:30;;;;;;;5.27;4.80;;;25.20;77.40;;;;;;5017745;28;20475;-26
2021/07/30 07:05:02;;;;;;;4.20;3.80;;;25.00;78.10;;;;;;5021940;28;20541;-26
2021/07/30 07:07:33;;;;;;;4.97;4.00;;;25.10;78.40;;;;;;5023727;28;21256;-26
2021/07/30 07:10:07;;;;;;;4.17;3.57;;;25.00;79.00;;;;;;5021178;28;20446;-26
2021/07/30 07:12:40;;;;;;;5.97;3.93;;;24.90;79.70;;;;;;5012795;28;20487;-26
2021/07/30 07:15:14;;;;;;;4.40;4.00;;;24.90;80.50;;;;;;5028916;28;20445;-26
2021/07/30 07:17:45;;;;;;;4.20;3.80;;;24.80;81.40;;;;;;5018936;28;20458;-26
2021/07/30 07:20:16;;;;;;;6.90;3.97;;;24.70;81.90;;;;;;5020783;28;20518;-26
2021/07/30 07:22:47;;;;;;;5.37;4.40;;;24.60;82.50;;;;;;5018354;28;20581;-26
2021/07/30 07:25:18;;;;;;;4.87;4.00;;;24.60;83.50;;;;;;5016144;28;20455;-26
2021/07/30 07:28:05;;;;;;;3.60;3.30;;;24.50;84.10;;;;;;5017409;28;20438;-26
2021/07/30 07:30:41;;;;;;;4.83;4.20;;;24.50;85.00;;;;;;5015796;28;20446;-26
2021/07/30 07:33:11;;;;;;;3.40;3.10;;;24.40;85.70;;;;;;5019724;28;20535;-26
2021/07/30 07:35:42;;;;;;;4.30;3.90;;;24.30;86.10;;;;;;5019450;28;20461;-25
2021/07/30 07:38:13;;;;;;;4.43;4.03;;;24.30;87.20;;;;;;5019190;28;20453;-26
2021/07/30 07:40:47;;;;;;;3.90;3.60;;;24.30;87.20;;;;;;5018156;28;20481;-26
2021/07/30 07:43:18;;;;;;;3.83;3.53;;;24.20;87.90;;;;;;5022056;28;20458;-26
2021/07/30 07:45:52;;;;;;;5.33;3.20;;;24.20;88.00;;;;;;5021980;28;20537;-26
2021/07/30 07:48:23;;;;;;;3.30;3.10;;;24.20;87.90;;;;;;5018247;28;20527;-26
2021/07/30 07:50:54;;;;;;;3.70;3.13;;;24.20;88.40;;;;;;5020771;28;20577;-26
2021/07/30 07:53:25;;;;;;;4.17;3.27;;;24.20;88.70;;;;;;5020452;28;20490;-26
2021/07/30 07:56:02;;;;;;;3.53;3.17;;;24.10;89.80;;;;;;5021291;28;20454;-26
2021/07/30 07:58:34;;;;;;;3.23;2.93;;;24.10;90.10;;;;;;5022065;28;20432;-26
2021/07/30 08:01:06;;;;;;;3.30;3.00;;;24.00;90.50;;;;;;5011965;28;20447;-26
2021/07/30 08:03:37;;;;;;;4.17;3.20;;;24.00;90.70;;;;;;5015326;28;20515;-26
2021/07/30 08:06:09;;;;;;;3.10;2.80;;;23.90;90.90;;;;;;5016224;28;20465;-26
2021/07/30 08:08:39;;;;;;;3.53;3.00;;;23.90;91.20;;;;;;5021459;28;20508;-27
2021/07/30 08:11:10;;;;;;;3.27;2.97;;;23.90;91.40;;;;;;5015854;28;20466;-27
2021/07/30 08:13:42;;;;;;;4.13;3.67;;;24.00;91.70;;;;;;5011205;28;20525;-27
2021/07/30 08:16:14;;;;;;;7.50;3.20;;;24.00;92.20;;;;;;5019293;28;20443;-25
2021/07/30 08:18:45;;;;;;;3.87;2.97;;;24.00;92.70;;;;;;5022872;28;20818;-26
2021/07/30 08:21:16;;;;;;;3.30;2.90;;;23.80;92.90;;;;;;5022042;28;20518;-26
2021/07/30 08:23:47;;;;;;;5.30;3.33;;;23.70;93.20;;;;;;5016408;28;20494;-26
2021/07/30 08:26:18;;;;;;;5.00;3.03;;;23.60;93.30;;;;;;5018203;28;20457;-26
2021/07/30 08:28:49;;;;;;;3.63;3.10;;;23.50;93.70;;;;;;5021247;28;20453;-26
2021/07/30 08:31:26;;;;;;;3.20;2.80;;;23.50;94.40;;;;;;5020155;28;20534;-26
2021/07/30 08:33:57;;;;;;;2.83;2.63;;;23.50;94.80;;;;;;5022770;28;20485;-26
2021/07/30 08:36:28;;;;;;;3.33;3.03;;;23.30;95.50;;;;;;5011186;28;20461;-26
2021/07/30 08:38:59;;;;;;;5.40;3.53;;;23.30;95.60;;;;;;5018634;28;20471;-27
2021/07/30 08:41:30;;;;;;;4.40;2.90;;;23.20;96.70;;;;;;5024667;28;20450;-26
2021/07/30 08:44:21;;;;;;;3.63;2.87;;;23.10;97.10;;;;;;5022736;28;20496;-26
2021/07/30 08:46:54;;;;;;;3.00;2.80;;;23.10;96.90;;;;;;5011114;28;20451;-27
2021/07/30 08:49:26;;;;;;;3.30;3.00;;;23.10;97.00;;;;;;5010423;28;20866;-26
2021/07/30 08:52:06;;;;;;;2.60;2.40;;;23.00;97.10;;;;;;5019044;28;20893;-26
2021/07/30 08:54:37;;;;;;;3.07;2.77;;;23.00;97.20;;;;;;5021170;28;20489;-26
2021/07/30 08:57:11;;;;;;;3.50;3.03;;;23.00;97.80;;;;;;5019329;28;20430;-26
2021/07/30 08:59:42;;;;;;;2.70;2.50;;;22.90;98.00;;;;;;5006976;28;20515;-26
2021/07/30 09:02:14;;;;;;;2.90;2.70;;;22.80;98.70;;;;;;5016032;28;20452;-26
2021/07/30 09:04:45;;;;;;;3.43;3.00;;;22.70;98.90;;;;;;5010768;28;20486;-26
2021/07/30 09:07:16;;;;;;;3.60;2.80;;;22.70;99.30;;;;;;5014561;28;20461;-26
2021/07/30 09:09:54;;;;;;;2.90;2.70;;;22.60;99.90;;;;;;5020024;28;20447;-26
2021/07/30 09:12:25;;;;;;;3.10;2.90;;;22.60;99.90;;;;;;5023223;28;20454;-26
2021/07/30 09:14:56;;;;;;;3.50;3.20;;;22.60;99.90;;;;;;5025101;28;20554;-26
2021/07/30 09:17:41;;;;;;;3.37;3.07;;;22.50;99.90;;;;;;5022416;28;20442;-26
2021/07/30 09:20:12;;;;;;;3.40;3.10;;;22.40;99.90;;;;;;5025862;28;20461;-26
2021/07/30 09:22:54;;;;;;;4.30;2.73;;;22.40;99.90;;;;;;5025364;28;20458;-27
2021/07/30 09:25:35;;;;;;;3.60;3.30;;;22.30;99.90;;;;;;5024449;28;20453;-26
2021/07/30 09:28:07;;;;;;;9.00;3.43;;;22.30;99.90;;;;;;5019732;28;20450;-26
2021/07/30 09:30:38;;;;;;;3.40;3.10;;;22.30;99.90;;;;;;5025353;28;20446;-26
2021/07/30 09:33:10;;;;;;;3.93;3.63;;;22.30;99.90;;;;;;5021429;28;20446;-26
2021/07/30 09:36:01;;;;;;;4.13;3.80;;;22.30;99.90;;;;;;5016050;28;20462;-26
2021/07/30 09:38:32;;;;;;;3.70;3.27;;;22.40;99.90;;;;;;5024879;28;20454;-26
2021/07/30 09:41:13;;;;;;;3.80;3.50;;;22.30;99.90;;;;;;5009035;28;20462;-26
2021/07/30 09:43:47;;;;;;;2.63;2.43;;;22.30;99.90;;;;;;5024406;28;20461;-26
2021/07/30 09:46:18;;;;;;;3.47;3.13;;;22.30;99.90;;;;;;5019992;28;20488;-26
2021/07/30 09:48:54;;;;;;;4.27;3.87;;;22.20;99.90;;;;;;5024644;28;20417;-26
2021/07/30 09:51:26;;;;;;;3.50;3.20;;;22.10;99.90;;;;;;5011189;28;20465;-26
2021/07/30 09:53:58;;;;;;;3.90;2.77;;;22.20;99.90;;;;;;5019602;28;20552;-26
2021/07/30 09:56:30;;;;;;;4.13;3.53;;;22.30;99.90;;;;;;5022837;28;20575;-26
2021/07/30 09:59:02;;;;;;;3.00;2.77;;;22.40;99.70;;;;;;5023293;28;20464;-26
2021/07/30 10:01:33;;;;;;;3.03;2.83;;;22.40;99.80;;;;;;5017730;28;20498;-26
2021/07/30 10:04:06;;;;;;;3.10;2.90;;;22.30;99.70;;;;;;5017675;28;20474;-26
2021/07/30 10:06:37;;;;;;;2.60;2.40;;;22.30;99.90;;;;;;5023629;28;20518;-26
2021/07/30 10:09:08;;;;;;;3.63;3.27;;;22.30;99.70;;;;;;5017738;28;20463;-26
2021/07/30 10:11:40;;;;;;;3.13;2.60;;;22.20;99.80;;;;;;5020376;28;20505;-26
2021/07/30 10:14:11;;;;;;;2.90;2.47;;;22.20;99.80;;;;;;5021971;28;20490;-25
2021/07/30 10:16:58;;;;;;;3.53;2.67;;;22.10;99.90;;;;;;5011426;28;20493;-26
2021/07/30 10:19:32;;;;;;;3.57;2.60;;;22.10;99.90;;;;;;5023941;28;20431;-26
2021/07/30 10:22:06;;;;;;;2.67;2.47;;;22.00;99.90;;;;;;5024681;28;20593;-26
2021/07/30 10:24:42;;;;;;;3.33;3.00;;;21.90;99.90;;;;;;5023635;28;20454;-26
2021/07/30 10:27:15;;;;;;;2.83;2.63;;;21.90;99.90;;;;;;5023328;28;20476;-26
2021/07/30 10:30:09;;;;;;;2.60;2.40;;;21.90;99.90;;;;;;5024681;28;20497;-26
2021/07/30 10:32:58;;;;;;;3.90;2.83;;;21.90;99.90;;;;;;5010879;28;20458;-27
2021/07/30 10:35:47;;;;;;;5.60;2.57;;;22.00;99.60;;;;;;5022500;28;20503;-26
2021/07/30 10:38:20;;;;;;;6.10;2.97;;;22.00;99.30;;;;;;5011825;28;20451;-26
2021/07/30 10:41:19;;;;;;;3.33;2.67;;;22.00;99.30;;;;;;5013586;28;20515;-26
2021/07/30 10:44:11;;;;;;;3.33;3.03;;;22.10;99.00;;;;;;5004293;28;20487;-26
2021/07/30 10:46:42;;;;;;;2.40;2.20;;;22.10;98.70;;;;;;5022832;28;21274;-26
2021/07/30 10:49:41;;;;;;;4.23;2.37;;;22.20;98.70;;;;;;5011993;28;20441;-26
2021/07/30 10:52:29;;;;;;;2.60;2.37;;;22.10;99.00;;;;;;5009440;28;20449;-26
2021/07/30 10:55:01;;;;;;;4.30;2.90;;;22.10;99.10;;;;;;5015429;28;20616;-25
2021/07/30 10:57:57;;;;;;;2.63;2.30;;;22.00;99.10;;;;;;5022553;28;20432;-26
2021/07/30 11:00:54;;;;;;;2.47;2.27;;;22.00;99.10;;;;;;5005233;28;20475;-26
2021/07/30 11:03:25;;;;;;;3.37;2.80;;;22.00;99.00;;;;;;5013013;28;20425;-26
2021/07/30 11:06:14;;;;;;;3.20;2.90;;;22.00;98.80;;;;;;5023121;28;20458;-26
2021/07/30 11:09:20;;;;;;;2.40;2.20;;;21.90;99.00;;;;;;5017070;28;20429;-26
2021/07/30 11:11:55;;;;;;;2.60;2.33;;;21.90;99.30;;;;;;5013106;28;20502;-26
2021/07/30 11:14:27;;;;;;;2.63;2.40;;;21.80;99.50;;;;;;5019165;28;20534;-26
2021/07/30 11:16:59;;;;;;;3.83;2.97;;;21.70;99.70;;;;;;5021070;28;20881;-26
2021/07/30 11:19:32;;;;;;;3.00;2.80;;;21.70;99.70;;;;;;5008600;28;20455;-27
2021/07/30 11:22:04;;;;;;;3.00;2.70;;;21.80;99.70;;;;;;5011725;28;20523;-27
2021/07/30 11:24:39;;;;;;;2.73;2.53;;;21.80;99.60;;;;;;5008279;28;20453;-27
2021/07/30 11:27:14;;;;;;;3.30;2.83;;;21.70;99.90;;;;;;5020557;28;20454;-26
2021/07/30 11:29:46;;;;;;;3.00;2.73;;;21.60;99.90;;;;;;5006783;28;20474;-26
2021/07/30 11:32:18;;;;;;;3.40;2.33;;;21.60;99.90;;;;;;5017590;28;20747;-27
2021/07/30 11:34:50;;;;;;;3.33;2.63;;;21.50;99.90;;;;;;5017210;28;20489;-26
2021/07/30 11:37:29;;;;;;;2.43;2.20;;;21.50;99.90;;;;;;5020948;28;20428;-26
2021/07/30 11:40:01;;;;;;;3.00;2.80;;;21.50;99.90;;;;;;5021997;28;20446;-27
2021/07/30 11:42:34;;;;;;;2.80;2.33;;;21.50;99.90;;;;;;5017543;28;20512;-27
2021/07/30 11:45:08;;;;;;;3.07;2.37;;;21.40;99.90;;;;;;5012460;28;20547;-27
2021/07/30 11:47:39;;;;;;;2.33;2.13;;;21.40;99.90;;;;;;5021552;28;20442;-26
2021/07/30 11:50:12;;;;;;;2.93;2.40;;;21.30;99.90;;;;;;5021746;28;20439;-26
2021/07/30 11:52:43;;;;;;;2.50;2.30;;;21.30;99.90;;;;;;5021368;28;20494;-27
2021/07/30 11:55:16;;;;;;;3.00;2.70;;;21.20;99.90;;;;;;5019605;28;20548;-26
2021/07/30 11:57:50;;;;;;;3.43;2.53;;;21.20;99.90;;;;;;5021267;28;20594;-27
2021/07/30 12:00:25;;;;;;;2.90;2.60;;;21.10;99.90;;;;;;5006685;28;20456;-27
2021/07/30 12:02:57;;;;;;;2.43;2.23;;;21.10;99.90;;;;;;5021464;28;20450;-27
2021/07/30 12:05:34;;;;;;;2.10;1.90;;;21.00;99.90;;;;;;5009993;28;20455;-27
2021/07/30 12:08:06;;;;;;;2.47;2.27;;;20.90;99.90;;;;;;5006397;28;20450;-27
2021/07/30 12:10:38;;;;;;;2.20;2.00;;;20.90;99.90;;;;;;5012177;28;20425;-27
2021/07/30 12:13:11;;;;;;;3.53;2.77;;;20.80;99.90;;;;;;5006877;28;20513;-27
2021/07/30 12:15:42;;;;;;;2.83;2.50;;;20.80;99.90;;;;;;5008238;28;20533;-27
2021/07/30 12:18:13;;;;;;;3.63;3.33;;;20.70;99.90;;;;;;5025329;28;20453;-28
2021/07/30 12:20:45;;;;;;;2.60;2.40;;;20.70;99.90;;;;;;5027923;28;20442;-27
2021/07/30 12:23:18;;;;;;;2.73;2.47;;;20.60;99.90;;;;;;5028856;28;20457;-27
2021/07/30 12:25:52;;;;;;;2.33;2.13;;;20.60;99.90;;;;;;5014205;28;20430;-27
2021/07/30 12:28:27;;;;;;;3.13;2.20;;;20.60;99.90;;;;;;5023925;28;20448;-27
2021/07/30 12:30:58;;;;;;;2.97;2.67;;;20.50;99.90;;;;;;5019633;28;20431;-28
2021/07/30 12:33:30;;;;;;;3.27;2.47;;;20.50;99.90;;;;;;5026993;28;20416;-28
2021/07/30 12:36:06;;;;;;;3.07;2.50;;;20.40;99.90;;;;;;5026416;28;20594;-27
2021/07/30 12:38:51;;;;;;;2.87;2.67;;;20.40;99.90;;;;;;5019138;28;20467;-27
2021/07/30 12:41:25;;;;;;;3.33;3.03;;;20.40;99.90;;;;;;5027985;28;20457;-27
2021/07/30 12:44:09;;;;;;;2.53;2.33;;;20.40;99.90;;;;;;5024139;28;20483;-28
2021/07/30 12:46:43;;;;;;;3.80;2.60;;;20.30;99.90;;;;;;5023572;28;20467;-27
2021/07/30 12:49:16;;;;;;;2.70;2.50;;;20.30;99.90;;;;;;5027222;28;20843;-27
2021/07/30 12:51:47;;;;;;;2.90;2.50;;;20.20;99.90;;;;;;5023001;28;20478;-28
2021/07/30 12:54:18;;;;;;;5.10;2.97;;;20.20;99.90;;;;;;5027570;28;20442;-27
2021/07/30 12:57:00;;;;;;;2.67;2.47;;;20.30;99.90;;;;;;5025415;28;20544;-27
2021/07/30 12:59:53;;;;;;;2.83;2.63;;;20.30;99.90;;;;;;5023780;28;20473;-27
2021/07/30 13:02:26;;;;;;;2.43;2.23;;;20.20;99.90;;;;;;5008672;28;20447;-26
2021/07/30 13:04:58;;;;;;;2.90;2.63;;;20.20;99.90;;;;;;5009274;28;20433;-26
2021/07/30 13:07:29;;;;;;;2.90;2.60;;;20.10;99.90;;;;;;5014309;28;20458;-27
2021/07/30 13:10:01;;;;;;;3.20;2.90;;;20.10;99.90;;;;;;5028561;28;20454;-27
2021/07/30 13:12:33;;;;;;;3.73;2.33;;;20.10;99.90;;;;;;5027233;28;20514;-28
2021/07/30 13:15:07;;;;;;;2.97;2.73;;;20.10;99.90;;;;;;5009690;28;20474;-27
2021/07/30 13:17:38;;;;;;;2.83;2.63;;;20.20;99.90;;;;;;5017618;28;20461;-27
2021/07/30 13:20:10;;;;;;;2.73;2.53;;;20.20;99.90;;;;;;5015444;28;20446;-27
2021/07/30 13:22:41;;;;;;;2.70;2.50;;;20.20;99.90;;;;;;5020989;28;20446;-27